Time;durP1;ratioP1;P1;durP2;ratioP2;P2;SDS_P1;SDS_P2;PMS_P1;PMS_P2;Temp;Humidity;BMP_temperature;BMP_pressure;BME280_temperature;BME280_humidity;BME280_pressure;Samples;Min_cycle;Max_cycle;Signal;HPM_P1;HPM_P2
2024/03/24 00:00:21;;;;;;;16.98;13.45;;;;;;;-145.63;100.00;61273.97;5120841;27;20037;-64
2024/03/24 00:02:47;;;;;;;18.50;13.23;;;;;;;-145.63;100.00;61273.97;5136157;27;20502;-64
2024/03/24 00:05:12;;;;;;;15.48;12.32;;;;;;;-145.63;100.00;61273.97;5122319;27;20039;-65
2024/03/24 00:07:38;;;;;;;16.67;12.77;;;;;;;-145.63;100.00;61273.97;5119596;27;20028;-64
2024/03/24 00:10:04;;;;;;;18.08;13.88;;;;;;;-145.63;100.00;61273.97;5122566;27;20383;-64
2024/03/24 00:12:30;;;;;;;18.42;14.10;;;;;;;-145.63;100.00;61273.97;5114955;27;20046;-64
2024/03/24 00:14:56;;;;;;;17.38;13.52;;;;;;;-145.63;100.00;61273.97;5136338;27;20023;-65
2024/03/24 00:17:21;;;;;;;18.58;13.00;;;;;;;-145.63;100.00;61273.97;5118987;27;20126;-64
2024/03/24 00:19:47;;;;;;;17.52;13.30;;;;;;;-145.63;100.00;61273.97;5121989;27;20479;-64
2024/03/24 00:22:13;;;;;;;20.15;14.10;;;;;;;-145.63;100.00;61273.97;5116013;28;20027;-66
2024/03/24 00:24:38;;;;;;;16.98;13.32;;;;;;;-145.63;100.00;61273.97;5115982;27;20058;-64
2024/03/24 00:27:04;;;;;;;17.38;14.27;;;;;;;-145.63;100.00;61273.97;5116769;27;20430;-65
2024/03/24 00:29:30;;;;;;;14.75;12.93;;;;;;;-145.63;100.00;61273.97;5119901;27;20395;-66
2024/03/24 00:31:55;;;;;;;18.92;14.73;;;;;;;-145.63;100.00;61273.97;5116040;28;20100;-65
2024/03/24 00:34:21;;;;;;;19.33;14.65;;;;;;;-145.63;100.00;61273.97;5098422;28;20050;-65
2024/03/24 00:36:46;;;;;;;17.05;13.55;;;;;;;-145.63;100.00;61273.97;5115821;28;20035;-65
2024/03/24 00:39:12;;;;;;;20.65;13.93;;;;;;;-145.63;100.00;61273.97;5116088;27;20039;-64
2024/03/24 00:41:37;;;;;;;17.77;13.65;;;;;;;-145.63;100.00;61273.97;5115291;28;20458;-64
2024/03/24 00:44:03;;;;;;;18.70;14.43;;;;;;;-145.63;100.00;61273.97;5130233;27;20046;-63
2024/03/24 00:46:29;;;;;;;16.58;13.93;;;;;;;-145.63;100.00;61273.97;5126060;27;20031;-64
2024/03/24 00:48:54;;;;;;;18.10;13.43;;;;;;;-145.63;100.00;61273.97;5116000;27;20027;-64
2024/03/24 00:51:20;;;;;;;17.55;13.13;;;;;;;-145.63;100.00;61273.97;5115064;27;20028;-65
2024/03/24 00:53:46;;;;;;;18.23;13.30;;;;;;;-145.63;100.00;61273.97;5131973;27;20035;-65
2024/03/24 00:56:11;;;;;;;17.42;13.75;;;;;;;-145.63;100.00;61273.97;5115355;28;20035;-64
2024/03/24 00:58:37;;;;;;;18.73;14.23;;;;;;;-145.63;100.00;61273.97;5126143;27;20499;-64
2024/03/24 01:01:05;;;;;;;17.88;13.77;;;;;;;-145.63;100.00;61273.97;5115410;27;20064;-66
2024/03/24 01:03:31;;;;;;;15.40;12.55;;;;;;;-145.63;100.00;61273.97;5116452;27;20108;-65
2024/03/24 01:05:56;;;;;;;18.38;14.18;;;;;;;-145.63;100.00;61273.97;5135702;27;20053;-64
2024/03/24 01:08:22;;;;;;;17.40;12.85;;;;;;;-145.63;100.00;61273.97;5118401;27;20038;-64
2024/03/24 01:10:47;;;;;;;16.60;12.68;;;;;;;-145.63;100.00;61273.97;5115669;28;20030;-64
2024/03/24 01:13:13;;;;;;;19.20;13.65;;;;;;;-145.63;100.00;61273.97;5122720;27;20039;-64
2024/03/24 01:15:45;;;;;;;17.08;13.38;;;;;;;-145.63;100.00;61273.97;5102217;28;20050;-64
2024/03/24 01:18:11;;;;;;;19.27;14.13;;;;;;;-145.63;100.00;61273.97;5115261;28;20040;-63
2024/03/24 01:20:37;;;;;;;19.02;13.80;;;;;;;-145.63;100.00;61273.97;5121845;27;20027;-63
2024/03/24 01:23:02;;;;;;;18.52;13.70;;;;;;;-145.63;100.00;61273.97;5129098;27;20100;-63
2024/03/24 01:25:28;;;;;;;16.75;12.82;;;;;;;-145.63;100.00;61273.97;5124699;27;20042;-64
2024/03/24 01:27:53;;;;;;;17.17;13.70;;;;;;;-145.63;100.00;61273.97;5114906;28;20468;-63
2024/03/24 01:30:19;;;;;;;18.23;14.20;;;;;;;-145.63;100.00;61273.97;5115067;27;20472;-64
2024/03/24 01:32:44;;;;;;;18.35;13.65;;;;;;;-145.63;100.00;61273.97;5134854;27;20356;-63
2024/03/24 01:35:10;;;;;;;18.45;14.02;;;;;;;-145.63;100.00;61273.97;5120155;27;20349;-64
2024/03/24 01:37:36;;;;;;;18.90;14.23;;;;;;;-145.63;100.00;61273.97;5114368;28;20031;-65
2024/03/24 01:40:02;;;;;;;16.35;13.07;;;;;;;-145.63;100.00;61273.97;5114740;28;20059;-66
2024/03/24 01:42:29;;;;;;;17.80;13.85;;;;;;;-145.63;100.00;61273.97;5096081;28;20383;-66
2024/03/24 01:44:54;;;;;;;16.25;12.93;;;;;;;-145.63;100.00;61273.97;5114461;27;20027;-65
2024/03/24 01:47:20;;;;;;;16.75;13.15;;;;;;;-145.63;100.00;61273.97;5118484;27;20032;-65
2024/03/24 01:49:46;;;;;;;17.00;13.38;;;;;;;-145.63;100.00;61273.97;5114460;27;20024;-65
2024/03/24 01:52:14;;;;;;;17.73;13.52;;;;;;;-145.63;100.00;61273.97;5127162;27;20032;-64
2024/03/24 01:54:40;;;;;;;19.48;13.65;;;;;;;-145.63;100.00;61273.97;5095711;28;20651;-65
2024/03/24 01:57:06;;;;;;;15.90;13.13;;;;;;;-145.63;100.00;61273.97;5114586;27;20085;-66
2024/03/24 01:59:32;;;;;;;17.35;14.07;;;;;;;-145.63;100.00;61273.97;5113837;28;20353;-65
2024/03/24 02:01:58;;;;;;;18.92;12.88;;;;;;;-145.63;100.00;61273.97;5131450;27;20031;-65
2024/03/24 02:04:23;;;;;;;18.20;13.38;;;;;;;-145.63;100.00;61273.97;5126014;27;20092;-65
2024/03/24 02:06:49;;;;;;;18.58;13.40;;;;;;;-145.63;100.00;61273.97;5114423;27;20051;-65
2024/03/24 02:09:15;;;;;;;15.77;12.38;;;;;;;-145.63;100.00;61273.97;5114021;28;20051;-66
2024/03/24 02:11:40;;;;;;;16.27;12.90;;;;;;;-145.63;100.00;61273.97;5123667;27;20027;-65
2024/03/24 02:14:06;;;;;;;16.52;13.20;;;;;;;-145.63;100.00;61273.97;5119955;27;20076;-65
2024/03/24 02:16:31;;;;;;;17.60;13.00;;;;;;;-145.63;100.00;61273.97;5120393;27;20031;-65
2024/03/24 02:19:17;;;;;;;18.98;14.05;;;;;;;-145.63;100.00;61273.97;5112076;28;20422;-65
2024/03/24 02:21:42;;;;;;;17.13;13.07;;;;;;;-145.63;100.00;61273.97;5114083;27;20127;-65
2024/03/24 02:24:08;;;;;;;19.27;14.43;;;;;;;-145.63;100.00;61273.97;5113820;28;20055;-64
2024/03/24 02:26:33;;;;;;;16.50;13.02;;;;;;;-145.63;100.00;61273.97;5130885;27;20027;-64
2024/03/24 02:28:59;;;;;;;18.70;13.98;;;;;;;-145.63;100.00;61273.97;5119627;27;20028;-64
2024/03/24 02:31:24;;;;;;;19.40;14.45;;;;;;;-145.63;100.00;61273.97;5112825;28;20016;-64
2024/03/24 02:33:50;;;;;;;17.45;13.30;;;;;;;-145.63;100.00;61273.97;5113502;28;20027;-64
2024/03/24 02:36:16;;;;;;;22.30;15.77;;;;;;;-145.63;100.00;61273.97;5118506;27;20035;-64
2024/03/24 02:38:41;;;;;;;19.88;14.90;;;;;;;-145.63;100.00;61273.97;5132833;27;20107;-64
2024/03/24 02:41:07;;;;;;;23.08;17.27;;;;;;;-145.63;100.00;61273.97;5114411;27;20122;-64
2024/03/24 02:43:33;;;;;;;20.90;15.18;;;;;;;-145.63;100.00;61273.97;5113175;27;20092;-64
2024/03/24 02:45:59;;;;;;;22.92;16.13;;;;;;;-145.63;100.00;61273.97;5123357;27;20053;-65
2024/03/24 02:48:26;;;;;;;20.88;15.60;;;;;;;-145.63;100.00;61273.97;5117158;27;20032;-64
2024/03/24 02:50:52;;;;;;;21.48;15.43;;;;;;;-145.63;100.00;61273.97;5113000;28;20073;-65
2024/03/24 02:53:17;;;;;;;21.33;15.30;;;;;;;-145.63;100.00;61273.97;5127692;27;20039;-66
2024/03/24 02:55:49;;;;;;;22.92;15.95;;;;;;;-145.63;100.00;61273.97;5117214;27;20376;-64
2024/03/24 02:58:15;;;;;;;21.67;14.93;;;;;;;-145.63;100.00;61273.97;5123851;27;20392;-64
2024/03/24 03:00:41;;;;;;;22.77;15.95;;;;;;;-145.63;100.00;61273.97;5126195;27;20035;-63
2024/03/24 03:03:07;;;;;;;20.50;15.60;;;;;;;-145.63;100.00;61273.97;5115745;28;20043;-64
2024/03/24 03:05:33;;;;;;;21.08;15.20;;;;;;;-145.63;100.00;61273.97;5133295;27;20103;-64
2024/03/24 03:07:59;;;;;;;23.27;15.40;;;;;;;-145.63;100.00;61273.97;5116053;28;20388;-63
2024/03/24 03:10:25;;;;;;;20.67;15.50;;;;;;;-145.63;100.00;61273.97;5112888;28;20028;-64
2024/03/24 03:12:50;;;;;;;18.90;14.27;;;;;;;-145.63;100.00;61273.97;5120816;27;20084;-66
2024/03/24 03:15:17;;;;;;;19.08;14.40;;;;;;;-145.63;100.00;61273.97;5129934;27;20027;-65
2024/03/24 03:17:42;;;;;;;22.48;16.25;;;;;;;-145.63;100.00;61273.97;5113670;28;20050;-65
2024/03/24 03:20:14;;;;;;;24.25;16.98;;;;;;;-145.63;100.00;61273.97;5132334;28;20035;-65
2024/03/24 03:22:40;;;;;;;24.80;16.83;;;;;;;-145.63;100.00;61273.97;5117811;28;20059;-66
2024/03/24 03:25:07;;;;;;;25.48;15.88;;;;;;;-145.63;100.00;61273.97;5112962;28;20086;-65
2024/03/24 03:27:33;;;;;;;25.77;17.48;;;;;;;-145.63;100.00;61273.97;5118150;28;20027;-64
2024/03/24 03:29:59;;;;;;;24.45;16.42;;;;;;;-145.63;100.00;61273.97;5113235;28;20341;-65
2024/03/24 03:32:25;;;;;;;24.45;15.80;;;;;;;-145.63;100.00;61273.97;5112906;28;20032;-65
2024/03/24 03:34:51;;;;;;;21.23;16.17;;;;;;;-145.63;100.00;61273.97;5114201;28;20028;-67
2024/03/24 03:37:17;;;;;;;23.58;17.05;;;;;;;-145.63;100.00;61273.97;5112632;28;20036;-65
2024/03/24 03:39:43;;;;;;;22.45;16.02;;;;;;;-145.63;100.00;61273.97;5114598;28;20099;-65
2024/03/24 03:42:08;;;;;;;24.67;17.42;;;;;;;-145.63;100.00;61273.97;5114933;28;20027;-65
2024/03/24 03:44:34;;;;;;;24.00;17.15;;;;;;;-145.63;100.00;61273.97;5120267;28;20097;-65
2024/03/24 03:46:59;;;;;;;22.58;16.67;;;;;;;-145.63;100.00;61273.97;5112722;28;20060;-64
2024/03/24 03:49:25;;;;;;;26.55;18.35;;;;;;;-145.63;100.00;61273.97;5124689;28;20031;-64
2024/03/24 03:51:56;;;;;;;25.63;17.80;;;;;;;-145.63;100.00;61273.97;5115101;28;20118;-64
2024/03/24 03:54:22;;;;;;;26.30;18.35;;;;;;;-145.63;100.00;61273.97;5112904;28;20039;-65
2024/03/24 03:56:48;;;;;;;26.83;18.38;;;;;;;-145.63;100.00;61273.97;5112394;28;20046;-65
2024/03/24 03:59:14;;;;;;;28.35;20.83;;;;;;;-145.63;100.00;61273.97;5112634;28;20032;-65
2024/03/24 04:01:41;;;;;;;28.00;20.27;;;;;;;-145.63;100.00;61273.97;5125543;28;20031;-64
2024/03/24 04:04:09;;;;;;;27.25;19.52;;;;;;;-145.63;100.00;61273.97;5118084;28;20030;-65
2024/03/24 04:06:35;;;;;;;29.00;21.38;;;;;;;-145.63;100.00;61273.97;5094214;28;20430;-64
2024/03/24 04:09:02;;;;;;;26.67;19.30;;;;;;;-145.63;100.00;61273.97;5112760;28;20475;-63
2024/03/24 04:11:28;;;;;;;26.50;18.88;;;;;;;-145.63;100.00;61273.97;5112572;28;20517;-64
2024/03/24 04:13:53;;;;;;;25.48;18.10;;;;;;;-145.63;100.00;61273.97;5128538;28;20116;-65
2024/03/24 04:16:20;;;;;;;27.73;18.42;;;;;;;-145.63;100.00;61273.97;5120691;28;20024;-65
2024/03/24 04:18:49;;;;;;;25.65;18.63;;;;;;;-145.63;100.00;61273.97;5112400;28;20032;-64
2024/03/24 04:21:16;;;;;;;28.17;18.77;;;;;;;-145.63;100.00;61273.97;5109399;28;20388;-63
2024/03/24 04:23:42;;;;;;;28.30;19.35;;;;;;;-145.63;100.00;61273.97;5112281;28;20055;-65
2024/03/24 04:26:08;;;;;;;27.88;19.10;;;;;;;-145.63;100.00;61273.97;5116331;27;20031;-64
2024/03/24 04:28:34;;;;;;;24.90;18.13;;;;;;;-145.63;100.00;61273.97;5118814;27;20027;-65
2024/03/24 04:31:00;;;;;;;28.85;19.20;;;;;;;-145.63;100.00;61273.97;5125222;27;20150;-65
2024/03/24 04:33:26;;;;;;;27.63;18.17;;;;;;;-145.63;100.00;61273.97;5142194;27;20461;-64
2024/03/24 04:35:52;;;;;;;27.08;18.83;;;;;;;-145.63;100.00;61273.97;5104558;28;20364;-65
2024/03/24 04:38:18;;;;;;;27.83;18.83;;;;;;;-145.63;100.00;61273.97;5116113;28;20123;-65
2024/03/24 04:40:45;;;;;;;27.95;18.35;;;;;;;-145.63;100.00;61273.97;5128652;27;20031;-65
2024/03/24 04:43:13;;;;;;;30.40;19.70;;;;;;;-145.63;100.00;61273.97;5126060;27;20040;-65
2024/03/24 04:45:39;;;;;;;29.40;20.55;;;;;;;-145.63;100.00;61273.97;5117286;27;20516;-64
2024/03/24 04:48:05;;;;;;;29.67;20.23;;;;;;;-145.63;100.00;61273.97;5115844;28;20039;-64
2024/03/24 04:50:30;;;;;;;31.75;20.13;;;;;;;-145.63;100.00;61273.97;5115101;27;20104;-64
2024/03/24 04:52:58;;;;;;;29.95;19.90;;;;;;;-145.63;100.00;61273.97;5115692;28;20019;-65
2024/03/24 04:55:24;;;;;;;31.35;20.75;;;;;;;-145.63;100.00;61273.97;5122270;27;20031;-65
2024/03/24 04:57:49;;;;;;;32.35;20.48;;;;;;;-145.63;100.00;61273.97;5115355;28;20036;-65
2024/03/24 05:00:16;;;;;;;30.95;21.02;;;;;;;-145.63;100.00;61273.97;5097380;27;20034;-65
2024/03/24 05:02:41;;;;;;;30.45;20.17;;;;;;;-145.63;100.00;61273.97;5135780;27;20063;-65
2024/03/24 05:05:07;;;;;;;38.55;24.10;;;;;;;-145.63;100.00;61273.97;5117548;27;20062;-65
2024/03/24 05:07:32;;;;;;;42.35;24.85;;;;;;;-145.63;100.00;61273.97;5120727;27;20467;-66
2024/03/24 05:09:58;;;;;;;39.58;23.35;;;;;;;-145.63;100.00;61273.97;5115207;28;20076;-66
2024/03/24 05:12:23;;;;;;;38.00;23.45;;;;;;;-145.63;100.00;61273.97;5128895;27;20024;-64
2024/03/24 05:14:49;;;;;;;43.88;25.30;;;;;;;-145.63;100.00;61273.97;5115514;28;20024;-65
2024/03/24 05:17:16;;;;;;;43.03;27.30;;;;;;;-145.63;100.00;61273.97;5131226;27;20463;-65
2024/03/24 05:19:42;;;;;;;33.53;22.27;;;;;;;-145.63;100.00;61273.97;5120522;27;20480;-65
2024/03/24 05:22:07;;;;;;;37.85;22.90;;;;;;;-145.63;100.00;61273.97;5116360;27;20028;-65
2024/03/24 05:24:35;;;;;;;37.17;23.02;;;;;;;-145.63;100.00;61273.97;5119123;27;20054;-64
2024/03/24 05:27:01;;;;;;;33.65;21.75;;;;;;;-145.63;100.00;61273.97;5124709;27;20039;-64
2024/03/24 05:29:27;;;;;;;38.70;23.02;;;;;;;-145.63;100.00;61273.97;5114265;28;20081;-64
2024/03/24 05:31:56;;;;;;;38.35;23.95;;;;;;;-145.63;100.00;61273.97;5130003;27;20023;-64
2024/03/24 05:34:22;;;;;;;36.60;23.30;;;;;;;-145.63;100.00;61273.97;5123435;27;20027;-64
2024/03/24 05:36:48;;;;;;;36.78;21.98;;;;;;;-145.63;100.00;61273.97;5113818;28;20392;-62
2024/03/24 05:39:13;;;;;;;34.83;20.23;;;;;;;-145.63;100.00;61273.97;5116358;27;20031;-64
2024/03/24 05:41:39;;;;;;;34.15;19.98;;;;;;;-145.63;100.00;61273.97;5131885;27;20108;-64
2024/03/24 05:44:04;;;;;;;35.83;22.30;;;;;;;-145.63;100.00;61273.97;5117398;27;20032;-66
2024/03/24 05:46:30;;;;;;;25.92;18.15;;;;;;;-145.63;100.00;61273.97;5115755;27;20491;-67
2024/03/24 05:48:55;;;;;;;26.02;15.90;;;;;;;-145.63;100.00;61273.97;5127331;27;20100;-65
2024/03/24 05:51:21;;;;;;;27.67;16.05;;;;;;;-145.63;100.00;61273.97;5117060;27;20054;-65
2024/03/24 05:53:46;;;;;;;22.50;14.77;;;;;;;-145.63;100.00;61273.97;5134643;27;20031;-65
2024/03/24 05:56:13;;;;;;;19.27;13.13;;;;;;;-145.63;100.00;61273.97;5116390;27;20031;-66
2024/03/24 05:58:39;;;;;;;19.58;12.55;;;;;;;-145.63;100.00;61273.97;5114375;27;20340;-64
2024/03/24 06:01:05;;;;;;;20.13;13.52;;;;;;;-145.63;100.00;61273.97;5104650;27;20023;-65
2024/03/24 06:03:30;;;;;;;20.08;14.27;;;;;;;-145.63;100.00;61273.97;5126375;27;20148;-64
2024/03/24 06:05:56;;;;;;;22.30;13.50;;;;;;;-145.63;100.00;61273.97;5114234;28;20031;-65
2024/03/24 06:08:23;;;;;;;19.08;13.23;;;;;;;-145.63;100.00;61273.97;5114142;27;20084;-64
2024/03/24 06:10:49;;;;;;;20.90;13.30;;;;;;;-145.63;100.00;61273.97;5114199;28;20051;-65
2024/03/24 06:13:14;;;;;;;20.67;13.88;;;;;;;-145.63;100.00;61273.97;5114471;28;20086;-64
2024/03/24 06:15:42;;;;;;;29.23;16.85;;;;;;;-145.63;100.00;61273.97;5113701;28;20506;-64
2024/03/24 06:18:08;;;;;;;36.53;21.17;;;;;;;-145.63;100.00;61273.97;5113670;27;20421;-65
2024/03/24 06:20:34;;;;;;;48.10;24.63;;;;;;;-145.63;100.00;61273.97;5113862;28;20027;-67
2024/03/24 06:23:03;;;;;;;42.95;23.90;;;;;;;-145.63;100.00;61273.97;5123768;27;20053;-65
2024/03/24 06:25:30;;;;;;;37.35;22.42;;;;;;;-145.63;100.00;61273.97;5113468;28;20043;-64
2024/03/24 06:27:56;;;;;;;43.90;24.95;;;;;;;-145.63;100.00;61273.97;5116673;27;20044;-65
2024/03/24 06:30:22;;;;;;;51.88;27.77;;;;;;;-145.63;100.00;61273.97;5115851;27;20042;-64
2024/03/24 06:32:48;;;;;;;50.47;26.85;;;;;;;-145.63;100.00;61273.97;5133286;27;20053;-65
2024/03/24 06:35:13;;;;;;;47.15;27.23;;;;;;;-145.63;100.00;61273.97;5115624;27;20464;-64
2024/03/24 06:37:39;;;;;;;50.22;26.85;;;;;;;-145.63;100.00;61273.97;5113224;27;20028;-66
2024/03/24 06:40:09;;;;;;;45.72;26.52;;;;;;;-145.63;100.00;61273.97;5113554;28;20444;-64
2024/03/24 06:42:48;;;;;;;39.28;24.25;;;;;;;-145.63;100.00;61273.97;5117741;27;20035;-64
2024/03/24 06:45:15;;;;;;;40.85;24.67;;;;;;;-145.63;100.00;61273.97;5123671;27;20030;-63
2024/03/24 06:47:40;;;;;;;41.50;24.10;;;;;;;-145.63;100.00;61273.97;5125881;27;20053;-63
2024/03/24 06:50:07;;;;;;;40.92;23.70;;;;;;;-145.63;100.00;61273.97;5115013;27;20421;-64
2024/03/24 06:52:35;;;;;;;35.38;20.42;;;;;;;-145.63;100.00;61273.97;5124813;27;20066;-64
2024/03/24 06:55:02;;;;;;;33.50;22.00;;;;;;;-145.63;100.00;61273.97;5124243;27;20376;-64
2024/03/24 06:57:28;;;;;;;29.50;19.13;;;;;;;-145.63;100.00;61273.97;5130268;27;20027;-63
2024/03/24 06:59:55;;;;;;;23.70;15.77;;;;;;;-145.63;100.00;61273.97;5141866;27;20019;-64
2024/03/24 07:02:57;;;;;;;26.33;17.00;;;;;;;-145.63;100.00;61273.97;5134228;27;20070;-64
2024/03/24 07:05:26;;;;;;;24.13;15.27;;;;;;;-145.63;100.00;61273.97;5124961;27;20024;-63
2024/03/24 07:07:51;;;;;;;24.17;15.50;;;;;;;-145.63;100.00;61273.97;5112966;28;20395;-63
2024/03/24 07:10:17;;;;;;;20.27;14.52;;;;;;;-145.63;100.00;61273.97;5113144;28;20019;-64
2024/03/24 07:12:58;;;;;;;22.60;15.70;;;;;;;-145.63;100.00;61273.97;5116608;27;20024;-63
2024/03/24 07:15:30;;;;;;;25.20;16.52;;;;;;;-145.63;100.00;61273.97;5122659;27;20031;-64
2024/03/24 07:18:10;;;;;;;25.55;17.42;;;;;;;-145.63;100.00;61273.97;5130398;27;20477;-63
2024/03/24 07:20:36;;;;;;;22.25;15.55;;;;;;;-145.63;100.00;61273.97;5113096;28;20049;-63
2024/03/24 07:23:04;;;;;;;22.80;16.20;;;;;;;-145.63;100.00;61273.97;5116971;28;20051;-64
2024/03/24 07:25:40;;;;;;;22.40;16.48;;;;;;;-145.63;100.00;61273.97;5112961;28;20097;-65
2024/03/24 07:28:05;;;;;;;25.48;17.45;;;;;;;-145.63;100.00;61273.97;5120928;28;20039;-64
2024/03/24 07:30:31;;;;;;;28.60;17.88;;;;;;;-145.63;100.00;61273.97;5131026;28;20479;-64
2024/03/24 07:32:57;;;;;;;24.98;16.23;;;;;;;-145.63;100.00;61273.97;5132226;27;20468;-66
2024/03/24 07:38:28;;;;;;;24.50;16.55;;;;;;;-145.63;100.00;61273.97;5129921;28;20066;-66
2024/03/24 07:40:54;;;;;;;24.33;16.10;;;;;;;-145.63;100.00;61273.97;5132184;28;20066;-63
2024/03/24 07:43:19;;;;;;;24.30;15.63;;;;;;;-145.63;100.00;61273.97;5104175;28;20445;-63
2024/03/24 07:45:45;;;;;;;23.63;15.63;;;;;;;-145.63;100.00;61273.97;5121516;28;20122;-64
2024/03/24 07:48:10;;;;;;;25.80;16.80;;;;;;;-145.63;100.00;61273.97;5131964;28;20459;-63
2024/03/24 07:50:37;;;;;;;21.88;14.35;;;;;;;-145.63;100.00;61273.97;5119933;28;20054;-63
2024/03/24 07:53:03;;;;;;;21.92;14.48;;;;;;;-145.63;100.00;61273.97;5125946;28;20178;-66
2024/03/24 07:55:28;;;;;;;20.40;14.25;;;;;;;-145.63;100.00;61273.97;5115700;28;20040;-64
2024/03/24 07:57:54;;;;;;;23.23;15.13;;;;;;;-145.63;100.00;61273.97;5118262;28;20031;-63
2024/03/24 08:00:19;;;;;;;23.05;15.43;;;;;;;-145.63;100.00;61273.97;5119698;27;20035;-67
2024/03/24 08:02:45;;;;;;;24.33;15.07;;;;;;;-145.63;100.00;61273.97;5116491;27;20072;-66
2024/03/24 08:05:11;;;;;;;25.40;15.65;;;;;;;-145.63;100.00;61273.97;5132568;27;20143;-64
2024/03/24 08:07:36;;;;;;;25.08;15.30;;;;;;;-145.63;100.00;61273.97;5123923;27;20444;-64
2024/03/24 08:10:05;;;;;;;24.70;16.10;;;;;;;-145.63;100.00;61273.97;5116119;28;20032;-63
2024/03/24 08:12:30;;;;;;;27.00;16.00;;;;;;;-145.63;100.00;61273.97;5115676;28;20032;-66
2024/03/24 08:14:56;;;;;;;26.63;16.80;;;;;;;-145.63;100.00;61273.97;5115810;28;20019;-64
2024/03/24 08:17:21;;;;;;;23.40;16.33;;;;;;;-145.63;100.00;61273.97;5115709;27;20059;-64
2024/03/24 08:19:56;;;;;;;23.48;15.63;;;;;;;-145.63;100.00;61273.97;5125494;27;20467;-61
2024/03/24 08:22:21;;;;;;;25.55;16.30;;;;;;;-145.63;100.00;61273.97;5128088;27;20438;-62
2024/03/24 08:24:47;;;;;;;24.90;16.27;;;;;;;-145.63;100.00;61273.97;5131612;27;20122;-63
2024/03/24 08:27:37;;;;;;;26.67;15.98;;;;;;;-145.63;100.00;61273.97;5115188;27;20066;-64
2024/03/24 08:30:46;;;;;;;22.73;15.65;;;;;;;-145.63;100.00;61273.97;5115178;28;20019;-63
2024/03/24 08:33:14;;;;;;;20.88;14.52;;;;;;;-145.63;100.00;61273.97;5114404;27;20723;-63
2024/03/24 08:35:40;;;;;;;21.95;15.05;;;;;;;-145.63;100.00;61273.97;5115768;27;20070;-63
2024/03/24 08:38:05;;;;;;;20.83;14.35;;;;;;;-145.63;100.00;61273.97;5130225;27;20027;-64
2024/03/24 08:40:31;;;;;;;22.52;16.15;;;;;;;-145.63;100.00;61273.97;5130532;27;20042;-64
2024/03/24 08:42:57;;;;;;;23.25;16.10;;;;;;;-145.63;100.00;61273.97;5126768;27;20031;-65
2024/03/24 08:45:22;;;;;;;22.88;15.90;;;;;;;-145.63;100.00;61273.97;5133031;27;20037;-63
2024/03/24 08:47:48;;;;;;;26.30;17.65;;;;;;;-145.63;100.00;61273.97;5129562;27;20506;-64
2024/03/24 08:50:13;;;;;;;25.08;16.63;;;;;;;-145.63;100.00;61273.97;5118067;27;20019;-66
2024/03/24 08:52:39;;;;;;;24.45;17.48;;;;;;;-145.63;100.00;61273.97;5126420;27;20037;-64
2024/03/24 08:55:07;;;;;;;27.17;18.75;;;;;;;-145.63;100.00;61273.97;5133175;27;20113;-66
2024/03/24 08:57:35;;;;;;;25.00;17.48;;;;;;;-145.63;100.00;61273.97;5118069;27;20440;-64
2024/03/24 09:00:01;;;;;;;26.70;18.70;;;;;;;-145.63;100.00;61273.97;5121477;27;20023;-66
2024/03/24 09:05:44;;;;;;;30.45;19.77;;;;;;;-145.63;100.00;61273.97;5114519;27;20114;-64
2024/03/24 09:08:09;;;;;;;34.53;19.80;;;;;;;-145.63;100.00;61273.97;5114963;27;20039;-65
2024/03/24 09:10:35;;;;;;;28.55;19.88;;;;;;;-145.63;100.00;61273.97;5132887;27;20468;-65
2024/03/24 09:13:00;;;;;;;32.13;21.27;;;;;;;-145.63;100.00;61273.97;5124644;27;20205;-66
2024/03/24 09:15:51;;;;;;;33.08;20.33;;;;;;;-145.63;100.00;61273.97;5116052;27;20103;-64
2024/03/24 09:18:19;;;;;;;35.50;22.55;;;;;;;-145.63;100.00;61273.97;5122287;27;20035;-64
2024/03/24 09:20:44;;;;;;;34.05;21.13;;;;;;;-145.63;100.00;61273.97;5133892;27;20311;-63
2024/03/24 09:23:10;;;;;;;32.03;19.70;;;;;;;-145.63;100.00;61273.97;5134886;27;20043;-63
2024/03/24 09:25:35;;;;;;;32.97;20.90;;;;;;;-145.63;100.00;61273.97;5143641;27;20031;-63
2024/03/24 09:28:01;;;;;;;38.42;22.50;;;;;;;-145.63;100.00;61273.97;5128112;27;20399;-64
2024/03/24 09:30:26;;;;;;;36.40;21.85;;;;;;;-145.63;100.00;61273.97;5133086;27;20528;-65
2024/03/24 09:32:52;;;;;;;35.67;21.73;;;;;;;-145.63;100.00;61273.97;5114319;28;20040;-64
2024/03/24 09:35:18;;;;;;;33.78;21.15;;;;;;;-145.63;100.00;61273.97;5114293;28;20039;-63
2024/03/24 09:37:43;;;;;;;36.08;21.17;;;;;;;-145.63;100.00;61273.97;5128692;27;20044;-65
2024/03/24 09:40:10;;;;;;;36.03;20.90;;;;;;;-145.63;100.00;61273.97;5124122;27;20386;-64
2024/03/24 09:42:36;;;;;;;35.10;21.42;;;;;;;-145.63;100.00;61273.97;5131469;27;20062;-64
2024/03/24 09:45:13;;;;;;;31.67;19.33;;;;;;;-145.63;100.00;61273.97;5132059;27;20107;-65
2024/03/24 09:47:40;;;;;;;32.25;20.08;;;;;;;-145.63;100.00;61273.97;5112564;27;20031;-64
2024/03/24 09:50:08;;;;;;;31.98;20.23;;;;;;;-145.63;100.00;61273.97;5121911;27;20087;-63
2024/03/24 09:52:34;;;;;;;33.88;20.02;;;;;;;-145.63;100.00;61273.97;5125499;27;20488;-64
2024/03/24 09:55:00;;;;;;;29.63;18.15;;;;;;;-145.63;100.00;61273.97;5122659;27;20023;-63
2024/03/24 09:57:39;;;;;;;31.70;18.88;;;;;;;-145.63;100.00;61273.97;5123251;27;20471;-62
2024/03/24 10:00:06;;;;;;;28.63;17.83;;;;;;;-145.63;100.00;61273.97;5121076;27;20046;-65
2024/03/24 10:02:33;;;;;;;25.15;16.98;;;;;;;-145.63;100.00;61273.97;5120669;27;20028;-64
2024/03/24 10:04:59;;;;;;;25.98;16.73;;;;;;;-145.63;100.00;61273.97;5122279;27;20467;-63
2024/03/24 10:07:24;;;;;;;25.52;16.48;;;;;;;-145.63;100.00;61273.97;5125592;27;20036;-62
2024/03/24 10:09:50;;;;;;;26.77;16.83;;;;;;;-145.63;100.00;61273.97;5123009;27;20027;-64
2024/03/24 10:12:15;;;;;;;25.92;17.13;;;;;;;-145.63;100.00;61273.97;5122517;27;20360;-66
2024/03/24 10:14:41;;;;;;;24.73;16.25;;;;;;;-145.63;100.00;61273.97;5120021;27;20094;-66
2024/03/24 10:17:30;;;;;;;23.65;15.52;;;;;;;-145.63;100.00;61273.97;5123513;27;20397;-64
2024/03/24 10:20:00;;;;;;;29.38;14.68;;;;;;;-145.63;100.00;61273.97;5118232;27;20067;-63
2024/03/24 10:22:25;;;;;;;25.67;15.63;;;;;;;-145.63;100.00;61273.97;5121226;27;20035;-62
2024/03/24 10:24:52;;;;;;;22.10;13.90;;;;;;;-145.63;100.00;61273.97;5122065;27;20092;-63
2024/03/24 10:27:17;;;;;;;24.65;15.45;;;;;;;-145.63;100.00;61273.97;5095058;28;20459;-64
2024/03/24 10:29:43;;;;;;;23.83;14.95;;;;;;;-145.63;100.00;61273.97;5117683;27;20122;-65
2024/03/24 10:32:10;;;;;;;21.38;15.20;;;;;;;-145.63;100.00;61273.97;5113329;28;20070;-62
2024/03/24 10:34:36;;;;;;;25.00;15.75;;;;;;;-145.63;100.00;61273.97;5122356;27;20046;-63
2024/03/24 10:37:02;;;;;;;24.15;16.00;;;;;;;-145.63;100.00;61273.97;5127901;27;20123;-64
2024/03/24 10:39:28;;;;;;;26.38;17.35;;;;;;;-145.63;100.00;61273.97;5128814;27;20077;-62
2024/03/24 10:41:54;;;;;;;26.98;17.20;;;;;;;-145.63;100.00;61273.97;5113538;28;20545;-63
2024/03/24 10:44:25;;;;;;;27.33;16.73;;;;;;;-145.63;100.00;61273.97;5128944;27;20110;-64
2024/03/24 10:46:53;;;;;;;24.75;17.55;;;;;;;-145.63;100.00;61273.97;5120584;27;20028;-65
2024/03/24 10:49:25;;;;;;;26.30;17.63;;;;;;;-145.63;100.00;61273.97;5129883;27;20412;-65
2024/03/24 10:51:57;;;;;;;27.70;18.35;;;;;;;-145.63;100.00;61273.97;5117275;27;20069;-65
2024/03/24 10:54:23;;;;;;;27.23;17.77;;;;;;;-145.63;100.00;61273.97;5114720;27;20371;-63
2024/03/24 10:56:49;;;;;;;28.10;18.27;;;;;;;-145.63;100.00;61273.97;5120336;27;20088;-63
2024/03/24 10:59:15;;;;;;;25.42;17.65;;;;;;;-145.63;100.00;61273.97;5112785;27;20035;-63